createdAt,value
2022-11-19T00:02:07.894Z,-0.13
2022-11-19T00:04:36.345Z,-0.07
2022-11-19T00:07:04.599Z,-0.09
2022-11-19T00:09:34.407Z,0.16
2022-11-19T00:12:20.211Z,-0.15
2022-11-19T00:14:48.626Z,-0.20
2022-11-19T00:17:16.705Z,-0.11
2022-11-19T00:19:45.269Z,-0.17
2022-11-19T00:22:13.458Z,-0.22
2022-11-19T00:24:43.112Z,0.04
2022-11-19T00:27:11.290Z,-0.20
2022-11-19T00:29:39.737Z,-0.19
2022-11-19T00:32:07.961Z,-0.12
2022-11-19T00:34:36.378Z,-0.14
2022-11-19T00:37:04.469Z,-0.08
2022-11-19T00:39:33.223Z,-0.04
2022-11-19T00:42:02.585Z,0.08
2022-11-19T00:44:36.748Z,-0.10
2022-11-19T00:47:05.660Z,-0.20
2022-11-19T00:49:34.168Z,-0.15
2022-11-19T00:52:02.398Z,-0.16
2022-11-19T00:54:30.760Z,-0.27
2022-11-19T00:56:58.843Z,-0.27
2022-11-19T00:59:28.713Z,0.01
2022-11-19T01:01:56.822Z,-0.28
2022-11-19T01:04:25.363Z,-0.27
2022-11-19T01:06:53.430Z,-0.18
2022-11-19T01:09:22.086Z,-0.19
2022-11-19T01:11:50.428Z,-0.17
2022-11-19T01:14:18.787Z,-0.13
2022-11-19T01:16:48.199Z,0.19
2022-11-19T01:19:17.324Z,-0.04
2022-11-19T01:21:45.572Z,-0.13
2022-11-19T01:24:14.027Z,-0.17
2022-11-19T01:26:45.882Z,-0.15
2022-11-19T01:29:14.715Z,-0.03
2022-11-19T01:31:42.775Z,-0.17
2022-11-19T01:34:12.598Z,0.11
2022-11-19T01:36:40.727Z,-0.18
2022-11-19T01:39:09.263Z,-0.22
2022-11-19T01:41:37.373Z,-0.27
2022-11-19T01:44:07.324Z,0.02
2022-11-19T01:46:37.347Z,0.03
2022-11-19T01:49:08.295Z,0.06
2022-11-19T01:51:39.677Z,0.12
2022-11-19T01:54:12.363Z,0.11
2022-11-19T01:56:40.762Z,-0.12
2022-11-19T01:59:12.055Z,0.04
2022-11-19T02:01:40.272Z,-0.28
2022-11-19T02:04:09.191Z,-0.05
2022-11-19T02:06:39.271Z,0.09
2022-11-19T02:09:08.056Z,-0.16
2022-11-19T02:11:53.280Z,0.31
2022-11-19T02:14:54.839Z,0.38
2022-11-19T02:17:36.259Z,0.32
2022-11-19T02:20:37.252Z,0.43
2022-11-19T02:23:45.790Z,0.49
2022-11-19T02:26:48.361Z,0.33
2022-11-19T02:29:24.590Z,0.24
2022-11-19T02:31:58.784Z,0.24
2022-11-19T02:34:30.671Z,0.11
2022-11-19T02:37:02.137Z,0.06
2022-11-19T02:39:31.355Z,0.59
2022-11-19T02:42:05.903Z,0.21
2022-11-19T02:44:54.481Z,0.19
2022-11-19T02:47:28.758Z,0.16
2022-11-19T02:50:00.290Z,0.07
2022-11-19T02:52:28.912Z,-0.10
2022-11-19T02:54:57.066Z,-0.18
2022-11-19T02:57:25.460Z,-0.13
2022-11-19T03:00:15.214Z,0.23
2022-11-19T03:03:05.314Z,0.29
2022-11-19T03:05:37.312Z,0.26
2022-11-19T03:08:07.218Z,0.12
2022-11-19T03:10:41.099Z,0.32
2022-11-19T03:13:27.407Z,0.31
2022-11-19T03:16:15.449Z,0.22
2022-11-19T03:18:52.364Z,0.46
2022-11-19T03:21:23.103Z,0.32
2022-11-19T03:23:55.981Z,0.34
2022-11-19T03:26:27.329Z,0.30
2022-11-19T03:28:58.053Z,0.31
2022-11-19T03:31:27.545Z,0.28
2022-11-19T03:34:01.963Z,0.37
2022-11-19T03:36:33.433Z,0.36
2022-11-19T03:39:06.019Z,0.39
2022-11-19T03:41:36.438Z,0.37
2022-11-19T03:44:16.899Z,0.57
2022-11-19T03:46:47.986Z,0.37
2022-11-19T03:49:21.026Z,0.40
2022-11-19T03:51:52.214Z,0.37
2022-11-19T03:54:21.136Z,0.11
2022-11-19T03:56:51.509Z,0.34
2022-11-19T03:59:22.515Z,0.01
2022-11-19T04:01:54.879Z,0.18
2022-11-19T04:04:39.685Z,0.29
2022-11-19T04:07:11.028Z,0.15
2022-11-19T04:09:40.947Z,0.09
2022-11-19T04:12:14.403Z,0.26
2022-11-19T04:14:43.605Z,0.09
2022-11-19T04:17:12.086Z,-0.03
2022-11-19T04:19:42.499Z,0.16
2022-11-19T04:22:13.475Z,-0.01
2022-11-19T04:24:42.528Z,-0.05
2022-11-19T04:27:11.117Z,-0.08
2022-11-19T04:29:39.945Z,-0.11
2022-11-19T04:32:08.186Z,-0.25
2022-11-19T04:34:36.583Z,-0.27
2022-11-19T04:37:06.186Z,-0.01
2022-11-19T04:39:35.096Z,-0.26
2022-11-19T04:42:03.305Z,-0.32
2022-11-19T04:44:33.042Z,-0.35
2022-11-19T04:47:01.284Z,-0.28
2022-11-19T04:49:29.830Z,-0.33
2022-11-19T04:51:58.325Z,-0.27
2022-11-19T04:54:28.007Z,-0.09
2022-11-19T04:56:56.042Z,-0.35
2022-11-19T04:59:24.485Z,-0.41
2022-11-19T05:01:52.745Z,-0.40
2022-11-19T05:04:21.652Z,-0.40
2022-11-19T05:06:49.650Z,-0.33
2022-11-19T05:09:18.384Z,-0.29
2022-11-19T05:11:48.136Z,0.03
2022-11-19T05:14:16.643Z,-0.27
2022-11-19T05:16:44.736Z,-0.17
2022-11-19T05:19:13.389Z,-0.16
2022-11-19T05:21:41.536Z,-0.10
2022-11-19T05:24:10.339Z,0.02
2022-11-19T05:26:38.318Z,-0.03
2022-11-19T05:29:08.291Z,0.30
2022-11-19T05:31:36.436Z,0.13
2022-11-19T05:34:04.973Z,0.21
2022-11-19T05:36:33.056Z,0.18
2022-11-19T05:39:01.564Z,0.07
2022-11-19T05:41:29.661Z,0.11
2022-11-19T05:43:58.146Z,0.23
2022-11-19T05:46:27.639Z,0.47
2022-11-19T05:48:56.217Z,0.32
2022-11-19T05:51:24.431Z,0.33
2022-11-19T05:53:53.017Z,0.29
2022-11-19T05:56:21.199Z,0.24
2022-11-19T05:58:49.745Z,0.33
2022-11-19T06:01:17.860Z,0.32
2022-11-19T06:03:47.672Z,0.57
2022-11-19T06:06:15.682Z,0.29
2022-11-19T06:08:44.111Z,0.40
2022-11-19T06:11:33.075Z,0.51
2022-11-19T06:14:01.477Z,0.46
2022-11-19T06:16:29.866Z,0.48
2022-11-19T06:18:59.647Z,0.65
2022-11-19T06:21:27.772Z,0.42
2022-11-19T06:23:56.139Z,0.36
2022-11-19T06:26:25.259Z,0.53
2022-11-19T06:28:53.661Z,0.32
2022-11-19T06:31:22.239Z,0.37
2022-11-19T06:33:53.416Z,0.29
2022-11-19T06:36:26.149Z,0.39
2022-11-19T06:38:55.881Z,0.14
2022-11-19T06:41:24.011Z,0.21
2022-11-19T06:43:52.542Z,0.16
2022-11-19T06:46:20.750Z,0.13
2022-11-19T06:48:49.106Z,0.03
2022-11-19T06:51:17.115Z,0.04
2022-11-19T06:53:46.903Z,0.33
2022-11-19T06:56:14.987Z,0.08
2022-11-19T06:58:43.439Z,0.03
2022-11-19T07:01:11.505Z,0.03
2022-11-19T07:03:39.842Z,-0.01
2022-11-19T07:06:08.543Z,0.08
2022-11-19T07:08:37.851Z,0.05
2022-11-19T07:11:21.510Z,0.28
2022-11-19T07:13:59.188Z,-0.03
2022-11-19T07:16:32.215Z,0.42
2022-11-19T07:19:01.594Z,0.12
2022-11-19T07:21:30.946Z,0.08
2022-11-19T07:24:00.584Z,-0.03
2022-11-19T07:26:31.842Z,0.23
2022-11-19T07:29:04.619Z,0.16
2022-11-19T07:31:33.606Z,0.01
2022-11-19T07:34:02.429Z,0.01
2022-11-19T07:36:30.431Z,-0.13
2022-11-19T07:38:58.820Z,-0.11
2022-11-19T07:41:44.344Z,0.01
2022-11-19T07:44:14.181Z,0.39
2022-11-19T07:46:42.732Z,0.27
2022-11-19T07:49:11.183Z,0.26
2022-11-19T07:51:39.464Z,0.28
2022-11-19T07:54:09.383Z,0.32
2022-11-19T07:56:37.685Z,0.42
2022-11-19T07:59:06.086Z,0.43
2022-11-19T08:01:35.752Z,0.72
2022-11-19T08:04:05.438Z,0.46
2022-11-19T08:06:34.766Z,0.57
2022-11-19T08:09:05.696Z,0.81
2022-11-19T08:11:34.129Z,0.57
2022-11-19T08:14:02.886Z,0.78
2022-11-19T08:16:51.041Z,0.81
2022-11-19T08:19:20.970Z,1.03
2022-11-19T08:21:49.408Z,0.84
2022-11-19T08:24:20.749Z,1.17
2022-11-19T08:26:50.133Z,1.04
2022-11-19T08:29:20.601Z,1.07
2022-11-19T08:31:49.600Z,1.03
2022-11-19T08:34:18.310Z,0.97
2022-11-19T08:36:48.015Z,1.13
2022-11-19T08:39:16.470Z,0.92
2022-11-19T08:42:02.036Z,0.97
2022-11-19T08:44:30.541Z,1.14
2022-11-19T08:46:58.661Z,1.21
2022-11-19T08:49:27.119Z,1.35
2022-11-19T08:51:57.644Z,1.72
2022-11-19T08:54:26.062Z,1.64
2022-11-19T08:56:54.471Z,1.83
2022-11-19T08:59:23.065Z,2.00
2022-11-19T09:01:51.271Z,2.19
2022-11-19T09:04:19.951Z,2.30
2022-11-19T09:06:48.329Z,2.44
2022-11-19T09:09:18.172Z,2.82
2022-11-19T09:11:46.275Z,2.80
2022-11-19T09:14:14.652Z,2.93
2022-11-19T09:16:42.800Z,3.16
2022-11-19T09:19:11.209Z,3.26
2022-11-19T09:21:39.370Z,3.53
2022-11-19T09:24:07.967Z,4.01
2022-11-19T09:26:37.574Z,4.72
2022-11-19T09:29:06.027Z,4.62
2022-11-19T09:31:34.094Z,4.81
2022-11-19T09:34:02.566Z,5.34
2022-11-19T09:36:30.695Z,5.54
2022-11-19T09:38:59.531Z,5.83
2022-11-19T09:41:45.515Z,6.29
2022-11-19T09:44:23.779Z,6.50
2022-11-19T09:46:57.942Z,6.64
2022-11-19T09:49:29.897Z,6.68
2022-11-19T09:52:02.317Z,6.64
2022-11-19T09:54:30.883Z,5.88
2022-11-19T09:57:04.589Z,6.08
2022-11-19T09:59:35.229Z,5.78
2022-11-19T10:02:08.296Z,5.78
2022-11-19T10:04:38.661Z,5.74
2022-11-19T10:07:12.721Z,5.83
2022-11-19T10:09:52.180Z,6.18
2022-11-19T10:12:31.700Z,6.56
2022-11-19T10:15:13.072Z,6.63
2022-11-19T10:17:49.166Z,6.43
2022-11-19T10:20:29.291Z,5.97
2022-11-19T10:23:00.492Z,5.43
2022-11-19T10:25:29.421Z,5.74
2022-11-19T10:28:05.206Z,5.24
2022-11-19T10:30:33.568Z,4.52
2022-11-19T10:33:04.804Z,4.57
2022-11-19T10:35:33.935Z,4.95
2022-11-19T10:38:03.680Z,4.36
2022-11-19T10:40:40.994Z,4.42
2022-11-19T10:43:22.115Z,4.23
2022-11-19T10:45:51.579Z,3.68
2022-11-19T10:48:23.392Z,3.93
2022-11-19T10:50:52.336Z,3.60
2022-11-19T10:53:25.038Z,3.77
2022-11-19T10:55:56.310Z,3.76
2022-11-19T10:58:27.356Z,3.73
2022-11-19T11:00:56.049Z,4.13
2022-11-19T11:03:26.861Z,3.52
2022-11-19T11:05:58.416Z,3.36
2022-11-19T11:08:27.167Z,2.99
2022-11-19T11:10:56.376Z,2.89
2022-11-19T11:13:57.457Z,3.27
2022-11-19T11:16:27.730Z,3.02
2022-11-19T11:18:58.121Z,3.05
2022-11-19T11:21:36.029Z,3.28
2022-11-19T11:24:06.399Z,3.05
2022-11-19T11:26:36.441Z,3.12
2022-11-19T11:29:08.796Z,3.33
2022-11-19T11:31:39.660Z,3.28
2022-11-19T11:34:10.912Z,3.23
2022-11-19T11:36:39.669Z,3.54
2022-11-19T11:39:07.929Z,4.07
2022-11-19T11:44:31.599Z,4.37
2022-11-19T11:47:03.568Z,4.33
2022-11-19T11:49:33.590Z,4.45
2022-11-19T11:52:20.482Z,4.57
2022-11-19T11:55:00.227Z,4.29
2022-11-19T11:57:30.222Z,3.82
2022-11-19T11:59:59.927Z,3.62
2022-11-19T12:02:31.413Z,3.52
2022-11-19T12:05:02.278Z,3.49
2022-11-19T12:07:47.724Z,3.75
2022-11-19T12:10:25.518Z,3.56
2022-11-19T12:13:19.186Z,3.50
2022-11-19T12:15:56.116Z,3.49
2022-11-19T12:18:32.093Z,3.33
2022-11-19T12:21:04.346Z,3.13
2022-11-19T12:23:48.834Z,3.16
2022-11-19T12:26:22.695Z,3.03
2022-11-19T12:29:02.761Z,2.84
2022-11-19T12:31:44.486Z,2.81
2022-11-19T12:34:28.821Z,2.74
2022-11-19T12:37:02.556Z,2.67
2022-11-19T12:39:40.052Z,2.62
2022-11-19T12:42:21.852Z,2.70
2022-11-19T12:44:57.038Z,2.74
2022-11-19T12:47:43.529Z,2.73
2022-11-19T12:50:19.842Z,2.69
2022-11-19T12:53:14.043Z,2.83
2022-11-19T12:55:49.591Z,2.63
2022-11-19T12:58:25.634Z,2.44
2022-11-19T13:00:57.398Z,2.55
2022-11-19T13:03:42.312Z,2.87
2022-11-19T13:06:18.028Z,2.84
2022-11-19T13:08:50.120Z,2.81
2022-11-19T13:11:21.807Z,2.84
2022-11-19T13:13:50.136Z,3.40
2022-11-19T13:16:21.560Z,3.02
2022-11-19T13:18:53.955Z,3.14
2022-11-19T13:21:27.757Z,3.01
2022-11-19T13:23:57.879Z,2.80
2022-11-19T13:26:30.422Z,2.73
2022-11-19T13:29:04.106Z,2.61
2022-11-19T13:31:36.943Z,2.34
2022-11-19T13:34:15.587Z,2.14
2022-11-19T13:36:46.524Z,1.73
2022-11-19T13:39:18.871Z,1.59
2022-11-19T13:42:07.944Z,1.51
2022-11-19T13:44:41.216Z,1.17
2022-11-19T13:47:14.716Z,1.41
2022-11-19T13:49:45.805Z,1.27
2022-11-19T13:52:16.830Z,1.59
2022-11-19T13:54:45.969Z,0.82
2022-11-19T13:57:27.154Z,1.08
2022-11-19T14:00:00.608Z,0.85
2022-11-19T14:02:45.629Z,0.89
2022-11-19T14:05:48.002Z,0.84
2022-11-19T14:08:25.299Z,0.60
2022-11-19T14:11:08.513Z,0.50
2022-11-19T14:14:00.134Z,0.34
2022-11-19T14:16:49.975Z,0.19
2022-11-19T14:19:37.071Z,-0.01
2022-11-19T14:22:51.325Z,0.16
2022-11-19T14:25:59.388Z,0.26
2022-11-19T14:28:47.763Z,-0.13
2022-11-19T14:31:16.875Z,-0.64
2022-11-19T14:34:04.377Z,-0.25
2022-11-19T14:36:44.177Z,-0.41
2022-11-19T14:39:20.857Z,-0.47
2022-11-19T14:42:15.768Z,-0.29
2022-11-19T14:44:44.659Z,-0.79
2022-11-19T14:47:34.596Z,-0.48
2022-11-19T14:50:04.749Z,-0.77
2022-11-19T14:52:35.642Z,-0.73
2022-11-19T14:55:07.064Z,-0.73
2022-11-19T14:57:37.681Z,-0.81
2022-11-19T15:00:08.466Z,-0.93
2022-11-19T15:02:39.661Z,-0.97
2022-11-19T15:05:18.329Z,-0.76
2022-11-19T15:07:52.926Z,-1.02
2022-11-19T15:10:50.087Z,-0.68
2022-11-19T15:13:28.778Z,-0.71
2022-11-19T15:16:07.529Z,-0.72
2022-11-19T15:19:14.587Z,-0.64
2022-11-19T15:22:15.724Z,-0.60
2022-11-19T15:25:03.706Z,-0.63
2022-11-19T15:27:47.462Z,-0.73
2022-11-19T15:30:17.944Z,-1.00
2022-11-19T15:32:59.080Z,-0.74
2022-11-19T15:35:45.717Z,-0.45
2022-11-19T15:38:30.278Z,-0.79
2022-11-19T15:41:01.958Z,-1.07
2022-11-19T15:43:33.672Z,-1.19
2022-11-19T15:46:06.429Z,-1.18
2022-11-19T15:48:38.382Z,-1.28
2022-11-19T15:51:08.613Z,-1.42
2022-11-19T15:53:36.771Z,-1.58
2022-11-19T15:56:07.652Z,-1.38
2022-11-19T15:58:39.642Z,-1.32
2022-11-19T16:01:09.555Z,-1.51
2022-11-19T16:03:40.257Z,-1.43
2022-11-19T16:06:10.430Z,-1.46
2022-11-19T16:08:39.143Z,-1.66
2022-11-19T16:11:25.081Z,-1.79
2022-11-19T16:14:12.984Z,-1.58
2022-11-19T16:16:58.663Z,-1.82
2022-11-19T16:19:26.783Z,-1.82
2022-11-19T16:21:57.533Z,-1.62
2022-11-19T16:24:44.171Z,-1.73
2022-11-19T16:27:13.896Z,-1.70
2022-11-19T16:29:44.138Z,-1.63
2022-11-19T16:32:18.021Z,-1.58
2022-11-19T16:34:46.344Z,-1.97
2022-11-19T16:37:15.633Z,-1.84
2022-11-19T16:39:45.093Z,-1.77
2022-11-19T16:42:17.148Z,-1.83
2022-11-19T16:44:48.575Z,-1.75
2022-11-19T16:47:22.253Z,-1.75
2022-11-19T16:50:00.023Z,-1.71
2022-11-19T16:52:39.356Z,-1.69
2022-11-19T16:55:30.388Z,-2.04
2022-11-19T16:58:00.090Z,-1.98
2022-11-19T17:00:33.156Z,-1.92
2022-11-19T17:03:04.216Z,-2.00
2022-11-19T17:05:33.224Z,-2.11
2022-11-19T17:08:06.524Z,-1.98
2022-11-19T17:10:35.644Z,-2.45
2022-11-19T17:13:05.892Z,-2.21
2022-11-19T17:15:38.677Z,-2.20
2022-11-19T17:18:16.640Z,-2.06
2022-11-19T17:20:53.153Z,-2.16
2022-11-19T17:23:23.022Z,-2.37
2022-11-19T17:25:52.790Z,-2.42
2022-11-19T17:28:22.930Z,-2.38
2022-11-19T17:30:52.664Z,-2.30
2022-11-19T17:33:23.005Z,-2.38
2022-11-19T17:35:52.073Z,-2.53
2022-11-19T17:38:23.966Z,-2.44
2022-11-19T17:40:53.855Z,-2.42
2022-11-19T17:43:42.794Z,-2.40
2022-11-19T17:46:12.341Z,-2.43
2022-11-19T17:48:42.439Z,-2.45
2022-11-19T17:51:12.945Z,-2.43
2022-11-19T17:53:41.675Z,-2.63
2022-11-19T17:56:16.839Z,-2.34
2022-11-19T17:58:45.260Z,-2.68
2022-11-19T18:01:15.396Z,-2.40
2022-11-19T18:03:44.078Z,-2.67
2022-11-19T18:06:12.784Z,-2.63
2022-11-19T18:08:42.274Z,-2.59
2022-11-19T18:11:13.362Z,-2.47
2022-11-19T18:13:42.234Z,-2.09
2022-11-19T18:16:16.069Z,-2.47
2022-11-19T18:18:45.108Z,-2.88
2022-11-19T18:21:14.362Z,-2.71
2022-11-19T18:23:44.151Z,-2.70
2022-11-19T18:26:12.767Z,-2.81
2022-11-19T18:28:44.968Z,-2.85
2022-11-19T18:31:17.618Z,-2.61
2022-11-19T18:33:48.037Z,-2.98
2022-11-19T18:36:16.274Z,-3.00
2022-11-19T18:38:45.060Z,-2.98
2022-11-19T18:41:14.588Z,-2.88
2022-11-19T18:44:01.009Z,-3.05
2022-11-19T18:46:30.429Z,-3.23
2022-11-19T18:48:58.849Z,-3.40
2022-11-19T18:51:28.172Z,-3.17
2022-11-19T18:53:56.526Z,-3.35
2022-11-19T18:56:24.774Z,-3.29
2022-11-19T18:58:53.529Z,-3.28
2022-11-19T19:01:24.110Z,-3.19
2022-11-19T19:03:54.008Z,-2.93
2022-11-19T19:06:23.220Z,-3.25
2022-11-19T19:08:52.053Z,-3.14
2022-11-19T19:11:37.640Z,-3.17
2022-11-19T19:14:06.132Z,-3.09
2022-11-19T19:16:34.820Z,-3.20
2022-11-19T19:19:05.216Z,-2.90
2022-11-19T19:21:33.529Z,-3.11
2022-11-19T19:24:05.357Z,-3.03
2022-11-19T19:26:33.507Z,-3.08
2022-11-19T19:29:02.249Z,-2.98
2022-11-19T19:31:30.368Z,-3.12
2022-11-19T19:33:58.822Z,-3.13
2022-11-19T19:36:28.845Z,-2.90
2022-11-19T19:38:57.358Z,-3.27
2022-11-19T19:41:27.193Z,-3.31
2022-11-19T19:43:57.390Z,-3.28
2022-11-19T19:46:25.702Z,-3.60
2022-11-19T19:48:56.112Z,-3.40
2022-11-19T19:51:25.528Z,-3.50
2022-11-19T19:53:55.867Z,-3.41
2022-11-19T19:56:25.485Z,-3.50
2022-11-19T19:58:54.090Z,-3.70
2022-11-19T20:01:24.613Z,-3.42
2022-11-19T20:03:54.812Z,-3.40
2022-11-19T20:06:24.554Z,-3.33
2022-11-19T20:08:53.207Z,-3.60
2022-11-19T20:11:25.163Z,-3.38
2022-11-19T20:13:54.492Z,-3.50
2022-11-19T20:16:23.770Z,-3.57
2022-11-19T20:18:53.068Z,-3.53
2022-11-19T20:21:22.821Z,-3.49
2022-11-19T20:23:51.588Z,-3.63
2022-11-19T20:26:21.322Z,-3.50
2022-11-19T20:28:55.564Z,-3.22
2022-11-19T20:31:24.451Z,-3.50
2022-11-19T20:33:55.167Z,-3.31
2022-11-19T20:36:24.605Z,-3.43
2022-11-19T20:38:53.305Z,-3.56
2022-11-19T20:41:39.281Z,-3.28
2022-11-19T20:44:24.184Z,-3.15
2022-11-19T20:46:53.696Z,-3.33
2022-11-19T20:49:24.058Z,-3.38
2022-11-19T20:51:52.834Z,-3.61
2022-11-19T20:54:22.435Z,-3.52
2022-11-19T20:56:51.928Z,-3.50
2022-11-19T20:59:22.602Z,-3.42
2022-11-19T21:01:51.673Z,-3.71
2022-11-19T21:04:20.688Z,-3.73
2022-11-19T21:06:50.045Z,-3.70
2022-11-19T21:09:19.853Z,-3.69
2022-11-19T21:11:48.746Z,-3.65
2022-11-19T21:14:17.107Z,-3.74
2022-11-19T21:16:46.779Z,-3.40
2022-11-19T21:19:15.642Z,-3.75
2022-11-19T21:21:44.289Z,-3.74
2022-11-19T21:24:13.148Z,-3.79
2022-11-19T21:26:41.678Z,-3.73
2022-11-19T21:29:10.072Z,-3.72
2022-11-19T21:31:42.721Z,-3.60
2022-11-19T21:34:14.336Z,-3.35
2022-11-19T21:36:42.692Z,-2.97
2022-11-19T21:39:11.848Z,-3.46
2022-11-19T21:41:40.147Z,-3.60
2022-11-19T21:44:08.571Z,-3.73
2022-11-19T21:46:37.238Z,-3.76
2022-11-19T21:49:06.344Z,-3.72
2022-11-19T21:51:35.940Z,-3.50
2022-11-19T21:54:04.509Z,-3.85
2022-11-19T21:56:38.270Z,-3.93
2022-11-19T21:59:07.818Z,-3.81
2022-11-19T22:01:36.573Z,-3.73
2022-11-19T22:04:06.131Z,-3.69
2022-11-19T22:06:35.791Z,-3.64
2022-11-19T22:09:04.223Z,-3.98
2022-11-19T22:11:32.693Z,-3.89
2022-11-19T22:14:02.436Z,-3.89
2022-11-19T22:16:31.310Z,-4.07
2022-11-19T22:19:00.068Z,-4.09
2022-11-19T22:21:29.197Z,-4.07
2022-11-19T22:23:59.174Z,-3.99
2022-11-19T22:26:27.758Z,-4.18
2022-11-19T22:28:56.398Z,-4.28
2022-11-19T22:31:25.627Z,-3.99
2022-11-19T22:33:54.152Z,-4.31
2022-11-19T22:36:23.192Z,-4.35
2022-11-19T22:38:52.024Z,-4.42
2022-11-19T22:41:22.891Z,-4.11
2022-11-19T22:43:52.145Z,-4.15
2022-11-19T22:46:20.882Z,-4.08
2022-11-19T22:48:49.352Z,-4.24
2022-11-19T22:51:18.811Z,-3.98
2022-11-19T22:53:47.560Z,-4.15
2022-11-19T22:56:17.522Z,-3.81
2022-11-19T22:58:47.803Z,-3.80
2022-11-19T23:01:18.376Z,-3.91
2022-11-19T23:03:47.525Z,-4.04
2022-11-19T23:06:16.095Z,-4.00
2022-11-19T23:08:44.811Z,-3.99
2022-11-19T23:11:14.604Z,-3.76
2022-11-19T23:13:44.107Z,-3.73
2022-11-19T23:16:15.604Z,-3.63
2022-11-19T23:18:48.192Z,-3.67
2022-11-19T23:21:17.846Z,-3.79
2022-11-19T23:23:46.367Z,-4.01
2022-11-19T23:26:16.314Z,-3.72
2022-11-19T23:28:44.879Z,-3.96
2022-11-19T23:31:18.834Z,-3.67
2022-11-19T23:33:47.676Z,-3.93
2022-11-19T23:36:18.083Z,-3.72
2022-11-19T23:38:46.909Z,-3.91
2022-11-19T23:41:17.161Z,-3.88
2022-11-19T23:43:46.255Z,-4.02
2022-11-19T23:46:18.016Z,-3.78
2022-11-19T23:48:48.004Z,-3.88
2022-11-19T23:51:17.998Z,-3.85
2022-11-19T23:53:46.470Z,-4.01
2022-11-19T23:56:16.015Z,-3.93
2022-11-19T23:58:44.748Z,-4.24
